sensor_id;sensor_type;location;lat;lon;timestamp;P1;durP1;ratioP1;P2;durP2;ratioP2
22103;SDS011;11218;48.886;9.426;2022-12-20T00:01:28;35.20;;;14.30;;
22103;SDS011;11218;48.886;9.426;2022-12-20T00:04:01;38.08;;;14.77;;
22103;SDS011;11218;48.886;9.426;2022-12-20T00:06:32;35.67;;;14.32;;
22103;SDS011;11218;48.886;9.426;2022-12-20T00:09:02;37.30;;;15.18;;
22103;SDS011;11218;48.886;9.426;2022-12-20T00:11:33;39.65;;;17.70;;
22103;SDS011;11218;48.886;9.426;2022-12-20T00:14:02;37.88;;;15.50;;
22103;SDS011;11218;48.886;9.426;2022-12-20T00:16:30;52.42;;;17.55;;
22103;SDS011;11218;48.886;9.426;2022-12-20T00:18:59;41.53;;;15.02;;
22103;SDS011;11218;48.886;9.426;2022-12-20T00:21:31;39.13;;;14.60;;
22103;SDS011;11218;48.886;9.426;2022-12-20T00:23:59;38.17;;;14.63;;
22103;SDS011;11218;48.886;9.426;2022-12-20T00:26:28;31.73;;;13.15;;
22103;SDS011;11218;48.886;9.426;2022-12-20T00:28:58;36.50;;;13.70;;
22103;SDS011;11218;48.886;9.426;2022-12-20T00:31:27;38.00;;;14.13;;
22103;SDS011;11218;48.886;9.426;2022-12-20T00:33:58;39.15;;;14.82;;
22103;SDS011;11218;48.886;9.426;2022-12-20T00:36:29;37.28;;;14.43;;
22103;SDS011;11218;48.886;9.426;2022-12-20T00:38:58;39.45;;;16.02;;
22103;SDS011;11218;48.886;9.426;2022-12-20T00:41:28;37.50;;;14.85;;
22103;SDS011;11218;48.886;9.426;2022-12-20T00:43:59;39.47;;;15.32;;
22103;SDS011;11218;48.886;9.426;2022-12-20T00:46:27;37.97;;;15.15;;
22103;SDS011;11218;48.886;9.426;2022-12-20T00:48:57;39.25;;;14.63;;
22103;SDS011;11218;48.886;9.426;2022-12-20T00:51:26;39.67;;;15.85;;
22103;SDS011;11218;48.886;9.426;2022-12-20T00:53:58;46.13;;;16.92;;
22103;SDS011;11218;48.886;9.426;2022-12-20T00:56:25;45.13;;;16.83;;
22103;SDS011;11218;48.886;9.426;2022-12-20T00:58:53;43.33;;;16.17;;
22103;SDS011;11218;48.886;9.426;2022-12-20T01:01:22;42.38;;;15.40;;
22103;SDS011;11218;48.886;9.426;2022-12-20T01:03:52;41.45;;;15.85;;
22103;SDS011;11218;48.886;9.426;2022-12-20T01:06:21;44.22;;;16.15;;
22103;SDS011;11218;48.886;9.426;2022-12-20T01:08:52;35.45;;;14.82;;
22103;SDS011;11218;48.886;9.426;2022-12-20T01:11:21;37.70;;;15.27;;
22103;SDS011;11218;48.886;9.426;2022-12-20T01:13:51;44.80;;;15.80;;
22103;SDS011;11218;48.886;9.426;2022-12-20T01:16:23;40.13;;;14.55;;
22103;SDS011;11218;48.886;9.426;2022-12-20T01:18:53;35.92;;;14.13;;
22103;SDS011;11218;48.886;9.426;2022-12-20T01:21:23;38.45;;;14.27;;
22103;SDS011;11218;48.886;9.426;2022-12-20T01:23:54;40.30;;;14.38;;
22103;SDS011;11218;48.886;9.426;2022-12-20T01:26:23;43.30;;;15.27;;
22103;SDS011;11218;48.886;9.426;2022-12-20T01:28:54;41.22;;;15.43;;
22103;SDS011;11218;48.886;9.426;2022-12-20T01:31:24;44.25;;;16.20;;
22103;SDS011;11218;48.886;9.426;2022-12-20T01:33:58;39.78;;;14.30;;
22103;SDS011;11218;48.886;9.426;2022-12-20T01:36:29;40.88;;;14.98;;
22103;SDS011;11218;48.886;9.426;2022-12-20T01:39:04;42.30;;;14.90;;
22103;SDS011;11218;48.886;9.426;2022-12-20T01:41:34;32.28;;;13.52;;
22103;SDS011;11218;48.886;9.426;2022-12-20T01:44:05;37.65;;;14.52;;
22103;SDS011;11218;48.886;9.426;2022-12-20T01:46:53;38.28;;;14.43;;
22103;SDS011;11218;48.886;9.426;2022-12-20T01:49:22;33.05;;;13.23;;
22103;SDS011;11218;48.886;9.426;2022-12-20T01:51:56;40.28;;;14.23;;
22103;SDS011;11218;48.886;9.426;2022-12-20T01:54:31;42.47;;;14.18;;
22103;SDS011;11218;48.886;9.426;2022-12-20T01:57:04;36.45;;;13.13;;
22103;SDS011;11218;48.886;9.426;2022-12-20T01:59:38;31.90;;;12.40;;
22103;SDS011;11218;48.886;9.426;2022-12-20T02:02:09;35.38;;;12.35;;
22103;SDS011;11218;48.886;9.426;2022-12-20T02:04:38;37.45;;;13.38;;
22103;SDS011;11218;48.886;9.426;2022-12-20T02:07:07;41.28;;;12.57;;
22103;SDS011;11218;48.886;9.426;2022-12-20T02:09:40;32.83;;;12.45;;
22103;SDS011;11218;48.886;9.426;2022-12-20T02:12:09;32.00;;;12.40;;
22103;SDS011;11218;48.886;9.426;2022-12-20T02:14:42;38.97;;;13.88;;
22103;SDS011;11218;48.886;9.426;2022-12-20T02:17:24;36.50;;;13.82;;
22103;SDS011;11218;48.886;9.426;2022-12-20T02:20:05;40.47;;;13.90;;
22103;SDS011;11218;48.886;9.426;2022-12-20T02:23:05;34.63;;;13.23;;
22103;SDS011;11218;48.886;9.426;2022-12-20T02:26:02;35.20;;;12.60;;
22103;SDS011;11218;48.886;9.426;2022-12-20T02:28:47;27.75;;;11.27;;
22103;SDS011;11218;48.886;9.426;2022-12-20T02:31:31;33.53;;;12.02;;
22103;SDS011;11218;48.886;9.426;2022-12-20T02:34:05;33.42;;;12.00;;
22103;SDS011;11218;48.886;9.426;2022-12-20T02:36:35;34.90;;;12.60;;
22103;SDS011;11218;48.886;9.426;2022-12-20T02:39:03;32.97;;;12.50;;
22103;SDS011;11218;48.886;9.426;2022-12-20T02:41:32;31.77;;;11.82;;
22103;SDS011;11218;48.886;9.426;2022-12-20T02:44:06;30.08;;;10.43;;
22103;SDS011;11218;48.886;9.426;2022-12-20T02:46:58;36.92;;;12.43;;
22103;SDS011;11218;48.886;9.426;2022-12-20T02:49:29;36.13;;;12.52;;
22103;SDS011;11218;48.886;9.426;2022-12-20T02:51:59;34.35;;;12.55;;
22103;SDS011;11218;48.886;9.426;2022-12-20T02:54:29;34.95;;;12.60;;
22103;SDS011;11218;48.886;9.426;2022-12-20T02:56:59;33.40;;;11.93;;
22103;SDS011;11218;48.886;9.426;2022-12-20T02:59:34;33.22;;;11.55;;
22103;SDS011;11218;48.886;9.426;2022-12-20T03:02:08;35.88;;;12.75;;
22103;SDS011;11218;48.886;9.426;2022-12-20T03:04:38;32.08;;;11.70;;
22103;SDS011;11218;48.886;9.426;2022-12-20T03:07:09;31.67;;;11.48;;
22103;SDS011;11218;48.886;9.426;2022-12-20T03:09:42;34.78;;;11.20;;
22103;SDS011;11218;48.886;9.426;2022-12-20T03:12:12;25.60;;;10.65;;
22103;SDS011;11218;48.886;9.426;2022-12-20T03:14:43;22.50;;;11.15;;
22103;SDS011;11218;48.886;9.426;2022-12-20T03:17:12;26.70;;;11.13;;
22103;SDS011;11218;48.886;9.426;2022-12-20T03:19:41;26.05;;;10.57;;
22103;SDS011;11218;48.886;9.426;2022-12-20T03:22:09;25.88;;;10.57;;
22103;SDS011;11218;48.886;9.426;2022-12-20T03:24:37;20.35;;;10.13;;
22103;SDS011;11218;48.886;9.426;2022-12-20T03:27:06;25.38;;;10.23;;
22103;SDS011;11218;48.886;9.426;2022-12-20T03:29:34;25.25;;;10.77;;
22103;SDS011;11218;48.886;9.426;2022-12-20T03:32:03;27.20;;;12.73;;
22103;SDS011;11218;48.886;9.426;2022-12-20T03:34:33;28.90;;;12.18;;
22103;SDS011;11218;48.886;9.426;2022-12-20T03:37:02;32.15;;;14.98;;
22103;SDS011;11218;48.886;9.426;2022-12-20T03:39:30;30.00;;;13.95;;
22103;SDS011;11218;48.886;9.426;2022-12-20T03:41:58;27.95;;;13.38;;
22103;SDS011;11218;48.886;9.426;2022-12-20T03:44:26;32.97;;;14.15;;
22103;SDS011;11218;48.886;9.426;2022-12-20T03:46:54;28.95;;;12.68;;
22103;SDS011;11218;48.886;9.426;2022-12-20T03:49:22;30.80;;;13.13;;
22103;SDS011;11218;48.886;9.426;2022-12-20T03:51:51;28.52;;;13.25;;
22103;SDS011;11218;48.886;9.426;2022-12-20T03:54:20;30.58;;;14.32;;
22103;SDS011;11218;48.886;9.426;2022-12-20T03:56:48;31.70;;;13.88;;
22103;SDS011;11218;48.886;9.426;2022-12-20T03:59:16;25.95;;;13.35;;
22103;SDS011;11218;48.886;9.426;2022-12-20T04:01:45;27.65;;;12.90;;
22103;SDS011;11218;48.886;9.426;2022-12-20T04:04:13;26.02;;;12.65;;
22103;SDS011;11218;48.886;9.426;2022-12-20T04:06:42;27.95;;;12.27;;
22103;SDS011;11218;48.886;9.426;2022-12-20T04:09:12;29.30;;;12.48;;
22103;SDS011;11218;48.886;9.426;2022-12-20T04:11:40;33.15;;;14.70;;
22103;SDS011;11218;48.886;9.426;2022-12-20T04:14:09;33.15;;;13.35;;
22103;SDS011;11218;48.886;9.426;2022-12-20T04:16:37;33.60;;;14.02;;
22103;SDS011;11218;48.886;9.426;2022-12-20T04:19:05;26.98;;;13.15;;
22103;SDS011;11218;48.886;9.426;2022-12-20T04:21:34;26.70;;;12.95;;
22103;SDS011;11218;48.886;9.426;2022-12-20T04:24:02;33.63;;;14.02;;
22103;SDS011;11218;48.886;9.426;2022-12-20T04:26:33;31.08;;;13.45;;
22103;SDS011;11218;48.886;9.426;2022-12-20T04:29:01;22.45;;;11.75;;
22103;SDS011;11218;48.886;9.426;2022-12-20T04:31:30;26.67;;;12.65;;
22103;SDS011;11218;48.886;9.426;2022-12-20T04:33:58;26.48;;;11.80;;
22103;SDS011;11218;48.886;9.426;2022-12-20T04:36:27;25.05;;;10.75;;
22103;SDS011;11218;48.886;9.426;2022-12-20T04:38:55;23.50;;;11.40;;
22103;SDS011;11218;48.886;9.426;2022-12-20T04:41:22;27.42;;;11.70;;
22103;SDS011;11218;48.886;9.426;2022-12-20T04:43:54;25.30;;;11.52;;
22103;SDS011;11218;48.886;9.426;2022-12-20T04:46:23;25.17;;;12.13;;
22103;SDS011;11218;48.886;9.426;2022-12-20T04:48:53;28.02;;;11.68;;
22103;SDS011;11218;48.886;9.426;2022-12-20T04:51:23;23.40;;;10.73;;
22103;SDS011;11218;48.886;9.426;2022-12-20T04:53:51;27.60;;;10.18;;
22103;SDS011;11218;48.886;9.426;2022-12-20T04:56:20;20.10;;;8.27;;
22103;SDS011;11218;48.886;9.426;2022-12-20T04:58:50;17.98;;;7.40;;
22103;SDS011;11218;48.886;9.426;2022-12-20T05:01:22;17.48;;;7.07;;
22103;SDS011;11218;48.886;9.426;2022-12-20T05:03:50;20.27;;;7.60;;
22103;SDS011;11218;48.886;9.426;2022-12-20T05:06:18;20.45;;;7.60;;
22103;SDS011;11218;48.886;9.426;2022-12-20T05:08:47;14.68;;;6.53;;
22103;SDS011;11218;48.886;9.426;2022-12-20T05:11:15;16.90;;;7.20;;
22103;SDS011;11218;48.886;9.426;2022-12-20T05:13:43;20.17;;;8.65;;
22103;SDS011;11218;48.886;9.426;2022-12-20T05:16:11;16.13;;;7.30;;
22103;SDS011;11218;48.886;9.426;2022-12-20T05:18:41;25.33;;;9.35;;
22103;SDS011;11218;48.886;9.426;2022-12-20T05:21:14;20.08;;;7.60;;
22103;SDS011;11218;48.886;9.426;2022-12-20T05:24:00;16.58;;;7.20;;
22103;SDS011;11218;48.886;9.426;2022-12-20T05:26:45;18.55;;;6.78;;
22103;SDS011;11218;48.886;9.426;2022-12-20T05:29:13;19.30;;;6.43;;
22103;SDS011;11218;48.886;9.426;2022-12-20T05:31:42;19.35;;;6.47;;
22103;SDS011;11218;48.886;9.426;2022-12-20T05:34:11;19.25;;;6.30;;
22103;SDS011;11218;48.886;9.426;2022-12-20T05:36:40;19.20;;;6.53;;
22103;SDS011;11218;48.886;9.426;2022-12-20T05:39:08;16.15;;;6.68;;
22103;SDS011;11218;48.886;9.426;2022-12-20T05:41:37;20.17;;;7.70;;
22103;SDS011;11218;48.886;9.426;2022-12-20T05:44:06;19.15;;;6.88;;
22103;SDS011;11218;48.886;9.426;2022-12-20T05:46:34;15.02;;;5.97;;
22103;SDS011;11218;48.886;9.426;2022-12-20T05:49:03;15.95;;;6.18;;
22103;SDS011;11218;48.886;9.426;2022-12-20T05:51:32;17.77;;;6.13;;
22103;SDS011;11218;48.886;9.426;2022-12-20T05:54:00;21.17;;;6.55;;
22103;SDS011;11218;48.886;9.426;2022-12-20T05:56:28;13.85;;;5.75;;
22103;SDS011;11218;48.886;9.426;2022-12-20T05:58:56;18.15;;;6.18;;
22103;SDS011;11218;48.886;9.426;2022-12-20T06:01:25;15.98;;;5.95;;
22103;SDS011;11218;48.886;9.426;2022-12-20T06:03:53;15.30;;;5.95;;
22103;SDS011;11218;48.886;9.426;2022-12-20T06:06:22;17.13;;;6.00;;
22103;SDS011;11218;48.886;9.426;2022-12-20T06:08:51;16.45;;;5.95;;
22103;SDS011;11218;48.886;9.426;2022-12-20T06:11:21;12.68;;;5.22;;
22103;SDS011;11218;48.886;9.426;2022-12-20T06:13:55;16.67;;;5.68;;
22103;SDS011;11218;48.886;9.426;2022-12-20T06:16:24;13.07;;;5.50;;
22103;SDS011;11218;48.886;9.426;2022-12-20T06:18:53;19.70;;;6.70;;
22103;SDS011;11218;48.886;9.426;2022-12-20T06:21:21;19.25;;;6.55;;
22103;SDS011;11218;48.886;9.426;2022-12-20T06:23:51;18.40;;;6.32;;
22103;SDS011;11218;48.886;9.426;2022-12-20T06:26:19;14.75;;;5.85;;
22103;SDS011;11218;48.886;9.426;2022-12-20T06:28:49;16.23;;;6.30;;
22103;SDS011;11218;48.886;9.426;2022-12-20T06:31:20;17.70;;;6.35;;
22103;SDS011;11218;48.886;9.426;2022-12-20T06:33:48;16.67;;;6.20;;
22103;SDS011;11218;48.886;9.426;2022-12-20T06:36:16;14.05;;;5.90;;
22103;SDS011;11218;48.886;9.426;2022-12-20T06:38:45;17.88;;;6.25;;
22103;SDS011;11218;48.886;9.426;2022-12-20T06:41:14;13.60;;;5.95;;
22103;SDS011;11218;48.886;9.426;2022-12-20T06:43:42;15.10;;;5.47;;
22103;SDS011;11218;48.886;9.426;2022-12-20T06:46:10;30.48;;;8.20;;
22103;SDS011;11218;48.886;9.426;2022-12-20T06:48:39;13.50;;;5.70;;
22103;SDS011;11218;48.886;9.426;2022-12-20T06:51:07;16.25;;;6.28;;
22103;SDS011;11218;48.886;9.426;2022-12-20T06:53:36;14.70;;;6.07;;
22103;SDS011;11218;48.886;9.426;2022-12-20T06:56:04;16.80;;;6.75;;
22103;SDS011;11218;48.886;9.426;2022-12-20T06:58:34;17.60;;;8.35;;
22103;SDS011;11218;48.886;9.426;2022-12-20T07:01:03;22.95;;;9.18;;
22103;SDS011;11218;48.886;9.426;2022-12-20T07:03:32;20.83;;;8.10;;
22103;SDS011;11218;48.886;9.426;2022-12-20T07:06:00;21.80;;;8.93;;
22103;SDS011;11218;48.886;9.426;2022-12-20T07:08:28;22.45;;;9.82;;
22103;SDS011;11218;48.886;9.426;2022-12-20T07:11:01;29.50;;;11.15;;
22103;SDS011;11218;48.886;9.426;2022-12-20T07:13:31;24.77;;;11.38;;
22103;SDS011;11218;48.886;9.426;2022-12-20T07:16:01;31.00;;;14.02;;
22103;SDS011;11218;48.886;9.426;2022-12-20T07:18:30;27.83;;;12.90;;
22103;SDS011;11218;48.886;9.426;2022-12-20T07:21:01;31.35;;;13.00;;
22103;SDS011;11218;48.886;9.426;2022-12-20T07:23:31;30.33;;;14.63;;
22103;SDS011;11218;48.886;9.426;2022-12-20T07:25:59;35.78;;;15.68;;
22103;SDS011;11218;48.886;9.426;2022-12-20T07:28:30;31.85;;;15.57;;
22103;SDS011;11218;48.886;9.426;2022-12-20T07:31:00;37.13;;;16.17;;
22103;SDS011;11218;48.886;9.426;2022-12-20T07:33:29;36.17;;;15.48;;
22103;SDS011;11218;48.886;9.426;2022-12-20T07:36:00;44.20;;;16.85;;
22103;SDS011;11218;48.886;9.426;2022-12-20T07:38:29;41.92;;;16.48;;
22103;SDS011;11218;48.886;9.426;2022-12-20T07:40:58;43.03;;;16.20;;
22103;SDS011;11218;48.886;9.426;2022-12-20T07:43:26;37.15;;;14.73;;
22103;SDS011;11218;48.886;9.426;2022-12-20T07:45:54;34.15;;;15.15;;
22103;SDS011;11218;48.886;9.426;2022-12-20T07:48:25;30.70;;;14.65;;
22103;SDS011;11218;48.886;9.426;2022-12-20T07:50:54;40.15;;;15.98;;
22103;SDS011;11218;48.886;9.426;2022-12-20T07:53:26;32.05;;;14.63;;
22103;SDS011;11218;48.886;9.426;2022-12-20T07:55:57;32.15;;;13.48;;
22103;SDS011;11218;48.886;9.426;2022-12-20T07:58:28;32.22;;;12.30;;
22103;SDS011;11218;48.886;9.426;2022-12-20T08:00:58;28.63;;;10.38;;
22103;SDS011;11218;48.886;9.426;2022-12-20T08:03:29;22.70;;;9.38;;
22103;SDS011;11218;48.886;9.426;2022-12-20T08:05:59;27.90;;;9.10;;
22103;SDS011;11218;48.886;9.426;2022-12-20T08:08:32;28.65;;;9.20;;
22103;SDS011;11218;48.886;9.426;2022-12-20T08:11:02;27.58;;;8.68;;
22103;SDS011;11218;48.886;9.426;2022-12-20T08:13:32;32.97;;;9.65;;
22103;SDS011;11218;48.886;9.426;2022-12-20T08:16:07;36.38;;;10.57;;
22103;SDS011;11218;48.886;9.426;2022-12-20T08:18:37;40.70;;;11.15;;
22103;SDS011;11218;48.886;9.426;2022-12-20T08:21:06;34.42;;;9.35;;
22103;SDS011;11218;48.886;9.426;2022-12-20T08:23:36;28.42;;;9.82;;
22103;SDS011;11218;48.886;9.426;2022-12-20T08:26:04;24.55;;;8.98;;
22103;SDS011;11218;48.886;9.426;2022-12-20T08:28:32;32.05;;;9.57;;
22103;SDS011;11218;48.886;9.426;2022-12-20T08:31:01;21.88;;;8.07;;
22103;SDS011;11218;48.886;9.426;2022-12-20T08:33:30;25.27;;;8.55;;
22103;SDS011;11218;48.886;9.426;2022-12-20T08:36:02;29.05;;;9.27;;
22103;SDS011;11218;48.886;9.426;2022-12-20T08:38:32;26.42;;;8.57;;
22103;SDS011;11218;48.886;9.426;2022-12-20T08:41:00;25.80;;;8.57;;
22103;SDS011;11218;48.886;9.426;2022-12-20T08:43:30;31.42;;;8.82;;
22103;SDS011;11218;48.886;9.426;2022-12-20T08:45:59;26.50;;;8.18;;
22103;SDS011;11218;48.886;9.426;2022-12-20T08:48:27;23.95;;;7.95;;
22103;SDS011;11218;48.886;9.426;2022-12-20T08:50:59;18.60;;;6.85;;
22103;SDS011;11218;48.886;9.426;2022-12-20T08:53:31;16.17;;;6.72;;
22103;SDS011;11218;48.886;9.426;2022-12-20T08:56:03;15.55;;;6.40;;
22103;SDS011;11218;48.886;9.426;2022-12-20T08:58:33;18.42;;;7.30;;
22103;SDS011;11218;48.886;9.426;2022-12-20T09:01:02;23.13;;;7.65;;
22103;SDS011;11218;48.886;9.426;2022-12-20T09:03:33;22.23;;;7.30;;
22103;SDS011;11218;48.886;9.426;2022-12-20T09:06:05;26.92;;;8.07;;
22103;SDS011;11218;48.886;9.426;2022-12-20T09:08:35;22.10;;;6.93;;
22103;SDS011;11218;48.886;9.426;2022-12-20T09:11:05;26.15;;;8.13;;
22103;SDS011;11218;48.886;9.426;2022-12-20T09:13:34;27.17;;;8.15;;
22103;SDS011;11218;48.886;9.426;2022-12-20T09:16:09;40.72;;;9.45;;
22103;SDS011;11218;48.886;9.426;2022-12-20T09:18:39;31.95;;;8.77;;
22103;SDS011;11218;48.886;9.426;2022-12-20T09:21:09;23.35;;;7.55;;
22103;SDS011;11218;48.886;9.426;2022-12-20T09:23:38;25.85;;;7.43;;
22103;SDS011;11218;48.886;9.426;2022-12-20T09:26:07;24.83;;;7.50;;
22103;SDS011;11218;48.886;9.426;2022-12-20T09:28:38;27.17;;;8.07;;
22103;SDS011;11218;48.886;9.426;2022-12-20T09:31:07;29.77;;;8.23;;
22103;SDS011;11218;48.886;9.426;2022-12-20T09:33:39;23.92;;;7.57;;
22103;SDS011;11218;48.886;9.426;2022-12-20T09:36:10;25.88;;;7.82;;
22103;SDS011;11218;48.886;9.426;2022-12-20T09:38:40;39.35;;;9.13;;
22103;SDS011;11218;48.886;9.426;2022-12-20T09:41:16;36.33;;;8.38;;
22103;SDS011;11218;48.886;9.426;2022-12-20T09:43:52;30.08;;;7.78;;
22103;SDS011;11218;48.886;9.426;2022-12-20T09:46:21;31.35;;;8.38;;
22103;SDS011;11218;48.886;9.426;2022-12-20T09:48:52;28.77;;;8.45;;
22103;SDS011;11218;48.886;9.426;2022-12-20T09:51:28;23.73;;;7.47;;
22103;SDS011;11218;48.886;9.426;2022-12-20T09:54:07;27.90;;;9.00;;
22103;SDS011;11218;48.886;9.426;2022-12-20T09:56:46;24.20;;;7.55;;
22103;SDS011;11218;48.886;9.426;2022-12-20T09:59:23;28.95;;;7.82;;
22103;SDS011;11218;48.886;9.426;2022-12-20T10:01:51;33.58;;;8.35;;
22103;SDS011;11218;48.886;9.426;2022-12-20T10:04:21;28.35;;;7.78;;
22103;SDS011;11218;48.886;9.426;2022-12-20T10:06:58;32.03;;;7.97;;
22103;SDS011;11218;48.886;9.426;2022-12-20T10:09:52;33.83;;;7.97;;
22103;SDS011;11218;48.886;9.426;2022-12-20T10:12:31;33.92;;;8.60;;
22103;SDS011;11218;48.886;9.426;2022-12-20T10:15:13;27.80;;;7.80;;
22103;SDS011;11218;48.886;9.426;2022-12-20T10:17:49;38.50;;;8.20;;
22103;SDS011;11218;48.886;9.426;2022-12-20T10:20:30;28.70;;;7.35;;
22103;SDS011;11218;48.886;9.426;2022-12-20T10:23:14;23.67;;;6.55;;
22103;SDS011;11218;48.886;9.426;2022-12-20T10:25:57;21.02;;;6.18;;
22103;SDS011;11218;48.886;9.426;2022-12-20T10:28:27;15.60;;;5.50;;
22103;SDS011;11218;48.886;9.426;2022-12-20T10:30:57;11.57;;;5.38;;
22103;SDS011;11218;48.886;9.426;2022-12-20T10:33:29;19.45;;;6.00;;
22103;SDS011;11218;48.886;9.426;2022-12-20T10:38:57;29.65;;;7.20;;
22103;SDS011;11218;48.886;9.426;2022-12-20T10:41:27;18.60;;;6.03;;
22103;SDS011;11218;48.886;9.426;2022-12-20T10:43:58;21.85;;;6.43;;
22103;SDS011;11218;48.886;9.426;2022-12-20T10:46:34;13.23;;;5.60;;
22103;SDS011;11218;48.886;9.426;2022-12-20T10:51:59;20.95;;;7.13;;
22103;SDS011;11218;48.886;9.426;2022-12-20T10:54:32;18.17;;;6.22;;
22103;SDS011;11218;48.886;9.426;2022-12-20T10:57:02;28.63;;;9.43;;
22103;SDS011;11218;48.886;9.426;2022-12-20T10:59:44;28.25;;;10.45;;
22103;SDS011;11218;48.886;9.426;2022-12-20T11:02:25;28.95;;;10.25;;
22103;SDS011;11218;48.886;9.426;2022-12-20T11:05:15;21.75;;;9.38;;
22103;SDS011;11218;48.886;9.426;2022-12-20T11:07:51;27.33;;;9.07;;
22103;SDS011;11218;48.886;9.426;2022-12-20T11:10:43;36.60;;;10.05;;
22103;SDS011;11218;48.886;9.426;2022-12-20T11:13:18;19.00;;;7.05;;
22103;SDS011;11218;48.886;9.426;2022-12-20T11:15:51;23.38;;;7.43;;
22103;SDS011;11218;48.886;9.426;2022-12-20T11:18:26;20.60;;;6.57;;
22103;SDS011;11218;48.886;9.426;2022-12-20T11:21:10;27.80;;;6.97;;
22103;SDS011;11218;48.886;9.426;2022-12-20T11:23:55;25.27;;;7.15;;
22103;SDS011;11218;48.886;9.426;2022-12-20T11:26:46;22.55;;;6.60;;
22103;SDS011;11218;48.886;9.426;2022-12-20T11:29:34;21.70;;;6.97;;
22103;SDS011;11218;48.886;9.426;2022-12-20T11:32:18;26.67;;;7.63;;
22103;SDS011;11218;48.886;9.426;2022-12-20T11:34:58;19.83;;;6.40;;
22103;SDS011;11218;48.886;9.426;2022-12-20T11:37:40;17.88;;;6.63;;
22103;SDS011;11218;48.886;9.426;2022-12-20T11:40:29;19.17;;;6.50;;
22103;SDS011;11218;48.886;9.426;2022-12-20T11:43:09;21.75;;;6.60;;
22103;SDS011;11218;48.886;9.426;2022-12-20T11:45:53;21.80;;;6.53;;
22103;SDS011;11218;48.886;9.426;2022-12-20T11:48:40;21.27;;;6.43;;
22103;SDS011;11218;48.886;9.426;2022-12-20T11:51:22;25.95;;;6.93;;
22103;SDS011;11218;48.886;9.426;2022-12-20T11:54:00;28.25;;;7.45;;
22103;SDS011;11218;48.886;9.426;2022-12-20T11:56:35;33.95;;;7.93;;
22103;SDS011;11218;48.886;9.426;2022-12-20T11:59:14;25.33;;;6.85;;
22103;SDS011;11218;48.886;9.426;2022-12-20T12:01:50;30.38;;;7.80;;
22103;SDS011;11218;48.886;9.426;2022-12-20T12:04:24;29.38;;;7.82;;
22103;SDS011;11218;48.886;9.426;2022-12-20T12:06:55;35.63;;;8.63;;
22103;SDS011;11218;48.886;9.426;2022-12-20T12:09:28;34.85;;;8.05;;
22103;SDS011;11218;48.886;9.426;2022-12-20T12:12:02;24.27;;;6.80;;
22103;SDS011;11218;48.886;9.426;2022-12-20T12:14:40;27.65;;;7.70;;
22103;SDS011;11218;48.886;9.426;2022-12-20T12:17:17;30.95;;;7.80;;
22103;SDS011;11218;48.886;9.426;2022-12-20T12:19:54;24.75;;;7.22;;
22103;SDS011;11218;48.886;9.426;2022-12-20T12:22:30;26.23;;;7.53;;
22103;SDS011;11218;48.886;9.426;2022-12-20T12:25:03;28.73;;;7.75;;
22103;SDS011;11218;48.886;9.426;2022-12-20T12:27:40;31.70;;;8.63;;
22103;SDS011;11218;48.886;9.426;2022-12-20T12:32:43;28.67;;;7.53;;
22103;SDS011;11218;48.886;9.426;2022-12-20T12:44:35;32.50;;;8.30;;
22103;SDS011;11218;48.886;9.426;2022-12-20T12:47:12;25.23;;;7.88;;
22103;SDS011;11218;48.886;9.426;2022-12-20T12:49:44;29.55;;;8.50;;
22103;SDS011;11218;48.886;9.426;2022-12-20T12:52:27;25.25;;;7.22;;
22103;SDS011;11218;48.886;9.426;2022-12-20T13:01:25;35.85;;;9.30;;
22103;SDS011;11218;48.886;9.426;2022-12-20T13:04:24;27.83;;;7.78;;
22103;SDS011;11218;48.886;9.426;2022-12-20T13:06:55;29.67;;;7.35;;
22103;SDS011;11218;48.886;9.426;2022-12-20T13:09:47;32.67;;;7.93;;
22103;SDS011;11218;48.886;9.426;2022-12-20T13:18:37;25.45;;;6.60;;
22103;SDS011;11218;48.886;9.426;2022-12-20T13:21:27;38.28;;;8.60;;
22103;SDS011;11218;48.886;9.426;2022-12-20T13:24:27;42.22;;;8.80;;
22103;SDS011;11218;48.886;9.426;2022-12-20T13:27:13;48.05;;;9.73;;
22103;SDS011;11218;48.886;9.426;2022-12-20T13:29:55;26.20;;;6.45;;
22103;SDS011;11218;48.886;9.426;2022-12-20T13:35:45;24.40;;;6.88;;
22103;SDS011;11218;48.886;9.426;2022-12-20T13:41:27;28.65;;;7.07;;
22103;SDS011;11218;48.886;9.426;2022-12-20T13:47:16;26.48;;;6.97;;
22103;SDS011;11218;48.886;9.426;2022-12-20T13:49:58;24.63;;;6.70;;
22103;SDS011;11218;48.886;9.426;2022-12-20T13:52:29;24.67;;;6.43;;
22103;SDS011;11218;48.886;9.426;2022-12-20T13:54:59;32.88;;;8.15;;
22103;SDS011;11218;48.886;9.426;2022-12-20T13:57:32;27.85;;;7.82;;
22103;SDS011;11218;48.886;9.426;2022-12-20T14:00:13;29.13;;;7.65;;
22103;SDS011;11218;48.886;9.426;2022-12-20T14:02:43;23.27;;;6.78;;
22103;SDS011;11218;48.886;9.426;2022-12-20T14:05:13;24.00;;;6.53;;
22103;SDS011;11218;48.886;9.426;2022-12-20T14:07:47;28.80;;;7.35;;
22103;SDS011;11218;48.886;9.426;2022-12-20T14:10:22;34.63;;;7.97;;
22103;SDS011;11218;48.886;9.426;2022-12-20T14:12:52;31.98;;;8.07;;
22103;SDS011;11218;48.886;9.426;2022-12-20T14:15:25;31.20;;;7.65;;
22103;SDS011;11218;48.886;9.426;2022-12-20T14:17:55;24.80;;;6.43;;
22103;SDS011;11218;48.886;9.426;2022-12-20T14:20:25;38.88;;;8.32;;
22103;SDS011;11218;48.886;9.426;2022-12-20T14:22:59;37.67;;;7.93;;
22103;SDS011;11218;48.886;9.426;2022-12-20T14:25:36;42.38;;;8.60;;
22103;SDS011;11218;48.886;9.426;2022-12-20T14:28:12;36.67;;;8.27;;
22103;SDS011;11218;48.886;9.426;2022-12-20T14:30:52;49.83;;;10.40;;
22103;SDS011;11218;48.886;9.426;2022-12-20T14:33:25;39.20;;;9.02;;
22103;SDS011;11218;48.886;9.426;2022-12-20T14:35:56;41.47;;;9.48;;
22103;SDS011;11218;48.886;9.426;2022-12-20T14:38:29;36.42;;;8.10;;
22103;SDS011;11218;48.886;9.426;2022-12-20T14:40:57;45.80;;;9.05;;
22103;SDS011;11218;48.886;9.426;2022-12-20T14:43:26;40.20;;;8.57;;
22103;SDS011;11218;48.886;9.426;2022-12-20T14:46:05;34.92;;;8.02;;
22103;SDS011;11218;48.886;9.426;2022-12-20T14:48:36;31.20;;;7.18;;
22103;SDS011;11218;48.886;9.426;2022-12-20T14:51:04;29.85;;;6.82;;
22103;SDS011;11218;48.886;9.426;2022-12-20T14:53:34;24.60;;;6.18;;
22103;SDS011;11218;48.886;9.426;2022-12-20T14:56:03;32.00;;;7.43;;
22103;SDS011;11218;48.886;9.426;2022-12-20T14:58:32;28.20;;;6.65;;
22103;SDS011;11218;48.886;9.426;2022-12-20T15:01:01;27.85;;;7.35;;
22103;SDS011;11218;48.886;9.426;2022-12-20T15:03:47;35.92;;;9.07;;
22103;SDS011;11218;48.886;9.426;2022-12-20T15:06:33;33.85;;;8.48;;
22103;SDS011;11218;48.886;9.426;2022-12-20T15:09:05;30.77;;;7.72;;
22103;SDS011;11218;48.886;9.426;2022-12-20T15:11:34;31.23;;;7.75;;
22103;SDS011;11218;48.886;9.426;2022-12-20T15:14:06;29.98;;;7.55;;
22103;SDS011;11218;48.886;9.426;2022-12-20T15:16:47;30.70;;;7.93;;
22103;SDS011;11218;48.886;9.426;2022-12-20T15:19:15;32.65;;;7.50;;
22103;SDS011;11218;48.886;9.426;2022-12-20T15:21:43;25.77;;;6.45;;
22103;SDS011;11218;48.886;9.426;2022-12-20T15:24:15;32.70;;;7.53;;
22103;SDS011;11218;48.886;9.426;2022-12-20T15:26:45;33.67;;;7.38;;
22103;SDS011;11218;48.886;9.426;2022-12-20T15:29:14;32.08;;;7.97;;
22103;SDS011;11218;48.886;9.426;2022-12-20T15:31:42;26.13;;;6.63;;
22103;SDS011;11218;48.886;9.426;2022-12-20T15:34:12;31.42;;;7.45;;
22103;SDS011;11218;48.886;9.426;2022-12-20T15:36:42;29.67;;;7.68;;
22103;SDS011;11218;48.886;9.426;2022-12-20T15:39:10;36.65;;;8.70;;